Winnebago, MN

8:13 PM CDT on May 29, 2015 (GMT -0500)
Golly Farms 2 | | Change Station
CLOSE
Current Station
Personal Weather Station
Location: Winnebago, MN
Elevation: 1096 ft
Nearby Weather Stations

Elev 1096 ft 43.75 °N, 94.17 °W | Updated 14 minutes ago

Overcast
Overcast
62.9 °F
Feels Like 62.9 °F
N
11.0
Wind Variable Wind from NNE
Gusts 26.0 mph

Today
High -- | Low -- °F
--% Chance of Precip.
Yesterday
High -- | Low -- °F
Precip. -- in
5:39 AM 8:49 PM
Waxing Gibbous, 87% visible
Pressure 29.96 in
Visibility 1.5 miles
Clouds Overcast 500 ft
Dew Point 61 °F
Humidity 94%
Rainfall 0.12 in
Snow Depth Not available.
UV 0 out of 12
Pollen .80 out of 12
Air Quality Not available.
Flu Activity Sporadic
METAR KFRM 300055Z AUTO 32018G22KT 1 1/2SM OVC005 14/12 A2996 RMK AO1 P0001

More Conditions Fewer Conditions

Pressure 29.96 in
Visibility 1.5 miles
Clouds Overcast 500 ft
Dew Point 61 °F
Humidity 94%
Rainfall 0.12 in
Snow Depth Not available.
UV 0 out of 12
Pollen .80 out of 12
Air Quality Not available.
Flu Activity Sporadic
METAR KFRM 300055Z AUTO 32018G22KT 1 1/2SM OVC005 14/12 A2996 RMK AO1 P0001

More Conditions Fewer Conditions

10-Day Weather Forecast

Almanac

Astronomy

May. 29, 2015 Rise Set
Actual Time
Civil Twilight
Nautical Twilight
Astronomical Twilight
Moon
Length of Visible Light
Length of Day
Tomorrow will be .
, % of the Moon is Illuminated

Today's Extremes

State Highs State Lows

Community

WunderPhotos

Upload Photos

1,825,413 photos uploaded!

WunderBlogs® & News

Nearby

Air Quality

  Air Quality AQ Index Pollutant
Not available.

Snow Depth

Station Depth Elevation

Earthquake Activity

City Distance Mag. Time & Date
Minimum magnitude displayed is 2.5.

Coastal Water Temperatures

Place Temperature

Stations

Nearby Weather Stations

Station Location Temp. Windchill Dew Point Humidity Wind Precip. Elev Updated Type